MKJS/MBJ METAR and TAF weather

Enter ICAO airport designator
Station Type Date Time Source
MKJS METAR 2021/07/24 19:00 UTC NOAA

MKJS 241900Z 04010KT 9999 FEW022 FEW024CB 31/24 Q1013


Station Type Date Time Source
MKJS Decoded METAR 2021/07/24 19:00 UTC NOAA

Montego Bay / Sangster, Jamaica (MKJS) 18-30N 077-55W 8M
Jul 24, 2021 - 03:00 PM EDT / 2021.07.24 1900 UTC
Wind: from the NE (040 degrees) at 12 MPH (10 KT):0
Visibility: greater than 7 mile(s):0
Sky conditions: mostly clear
Weather: Cumulonimbus clouds observed
Temperature: 87 F (31 C)
Heat index: 95.7 F (35.4 C):1
Dew Point: 75 F (24 C)
Relative Humidity: 66%
Pressure (altimeter): 29.91 in. Hg (1013 hPa)
ob: MKJS 241900Z 04010KT 9999 FEW022 FEW024CB 31/24 Q1013
cycle: 19

Station Type Date Time Source
MKJS TAF 2021/07/24 18:15 UTC NOAA

TAF MKJS 241715Z 2418/2518 05013KT 9999 FEW022 PROB40
TEMPO 2420/2502 SHRA BKN018 FEW020CB
BECMG 2423/2501 VRB02KT
BECMG 2514/2516 06012KT

Example: see airport list